sensor_id;sensor_type;location;lat;lon;timestamp;P1;durP1;ratioP1;P2;durP2;ratioP2
434;SDS011;204;48.942;9.256;2022-12-15T00:01:03;44.35;;;33.22;;
434;SDS011;204;48.942;9.256;2022-12-15T00:03:48;50.28;;;35.13;;
434;SDS011;204;48.942;9.256;2022-12-15T00:06:32;46.10;;;35.42;;
434;SDS011;204;48.942;9.256;2022-12-15T00:09:15;48.35;;;36.03;;
434;SDS011;204;48.942;9.256;2022-12-15T00:11:59;49.95;;;36.03;;
434;SDS011;204;48.942;9.256;2022-12-15T00:14:43;48.03;;;35.05;;
434;SDS011;204;48.942;9.256;2022-12-15T00:17:28;45.95;;;33.55;;
434;SDS011;204;48.942;9.256;2022-12-15T00:20:12;46.55;;;34.80;;
434;SDS011;204;48.942;9.256;2022-12-15T00:22:56;51.65;;;34.95;;
434;SDS011;204;48.942;9.256;2022-12-15T00:25:41;44.67;;;34.28;;
434;SDS011;204;48.942;9.256;2022-12-15T00:28:25;52.17;;;34.67;;
434;SDS011;204;48.942;9.256;2022-12-15T00:31:09;49.88;;;35.00;;
434;SDS011;204;48.942;9.256;2022-12-15T00:33:54;48.25;;;33.92;;
434;SDS011;204;48.942;9.256;2022-12-15T00:36:37;48.92;;;35.13;;
434;SDS011;204;48.942;9.256;2022-12-15T00:39:22;49.40;;;33.85;;
434;SDS011;204;48.942;9.256;2022-12-15T00:41:47;49.17;;;35.50;;
434;SDS011;204;48.942;9.256;2022-12-15T00:44:13;52.80;;;35.77;;
434;SDS011;204;48.942;9.256;2022-12-15T00:46:38;50.30;;;35.40;;
434;SDS011;204;48.942;9.256;2022-12-15T00:49:22;47.60;;;34.55;;
434;SDS011;204;48.942;9.256;2022-12-15T00:52:08;44.85;;;34.17;;
434;SDS011;204;48.942;9.256;2022-12-15T00:54:52;51.88;;;35.53;;
434;SDS011;204;48.942;9.256;2022-12-15T00:57:36;46.95;;;34.38;;
434;SDS011;204;48.942;9.256;2022-12-15T01:00:21;49.45;;;36.17;;
434;SDS011;204;48.942;9.256;2022-12-15T01:03:12;48.58;;;34.83;;
434;SDS011;204;48.942;9.256;2022-12-15T01:05:58;46.88;;;34.92;;
434;SDS011;204;48.942;9.256;2022-12-15T01:08:43;55.13;;;37.63;;
434;SDS011;204;48.942;9.256;2022-12-15T01:11:27;53.75;;;38.15;;
434;SDS011;204;48.942;9.256;2022-12-15T01:14:11;51.22;;;35.33;;
434;SDS011;204;48.942;9.256;2022-12-15T01:16:56;54.22;;;37.20;;
434;SDS011;204;48.942;9.256;2022-12-15T01:19:40;47.80;;;35.55;;
434;SDS011;204;48.942;9.256;2022-12-15T01:22:24;48.15;;;35.40;;
434;SDS011;204;48.942;9.256;2022-12-15T01:24:49;49.13;;;35.73;;
434;SDS011;204;48.942;9.256;2022-12-15T01:27:15;58.93;;;38.37;;
434;SDS011;204;48.942;9.256;2022-12-15T01:29:41;55.80;;;39.00;;
434;SDS011;204;48.942;9.256;2022-12-15T01:32:06;53.17;;;36.23;;
434;SDS011;204;48.942;9.256;2022-12-15T01:34:33;51.17;;;35.45;;
434;SDS011;204;48.942;9.256;2022-12-15T01:36:58;51.90;;;35.10;;
434;SDS011;204;48.942;9.256;2022-12-15T01:39:24;49.77;;;35.77;;
434;SDS011;204;48.942;9.256;2022-12-15T01:42:10;52.03;;;36.60;;
434;SDS011;204;48.942;9.256;2022-12-15T01:44:37;47.42;;;34.42;;
434;SDS011;204;48.942;9.256;2022-12-15T01:47:02;51.20;;;37.87;;
434;SDS011;204;48.942;9.256;2022-12-15T01:49:29;51.53;;;34.80;;
434;SDS011;204;48.942;9.256;2022-12-15T01:52:00;46.60;;;34.63;;
434;SDS011;204;48.942;9.256;2022-12-15T01:54:29;50.03;;;35.10;;
434;SDS011;204;48.942;9.256;2022-12-15T01:57:03;54.63;;;35.10;;
434;SDS011;204;48.942;9.256;2022-12-15T01:59:33;45.40;;;33.70;;
434;SDS011;204;48.942;9.256;2022-12-15T02:02:02;49.97;;;34.72;;
434;SDS011;204;48.942;9.256;2022-12-15T02:04:28;47.10;;;32.67;;
434;SDS011;204;48.942;9.256;2022-12-15T02:06:55;46.40;;;32.70;;
434;SDS011;204;48.942;9.256;2022-12-15T02:09:20;52.13;;;34.30;;
434;SDS011;204;48.942;9.256;2022-12-15T02:17:40;51.85;;;34.67;;
434;SDS011;204;48.942;9.256;2022-12-15T02:28:41;45.55;;;33.38;;
434;SDS011;204;48.942;9.256;2022-12-15T02:31:24;54.05;;;36.22;;
434;SDS011;204;48.942;9.256;2022-12-15T02:34:26;45.65;;;32.90;;
434;SDS011;204;48.942;9.256;2022-12-15T02:39:48;47.83;;;32.28;;
434;SDS011;204;48.942;9.256;2022-12-15T02:42:13;46.57;;;32.70;;
434;SDS011;204;48.942;9.256;2022-12-15T02:44:41;45.17;;;30.83;;
434;SDS011;204;48.942;9.256;2022-12-15T02:47:16;44.08;;;33.50;;
434;SDS011;204;48.942;9.256;2022-12-15T02:56:10;42.87;;;32.07;;
434;SDS011;204;48.942;9.256;2022-12-15T03:01:29;43.60;;;31.52;;
434;SDS011;204;48.942;9.256;2022-12-15T03:04:08;43.00;;;31.15;;
434;SDS011;204;48.942;9.256;2022-12-15T03:06:35;46.50;;;34.20;;
434;SDS011;204;48.942;9.256;2022-12-15T03:09:01;41.22;;;30.92;;
434;SDS011;204;48.942;9.256;2022-12-15T03:11:27;43.23;;;30.73;;
434;SDS011;204;48.942;9.256;2022-12-15T03:13:53;48.07;;;32.10;;
434;SDS011;204;48.942;9.256;2022-12-15T03:16:19;44.43;;;31.77;;
434;SDS011;204;48.942;9.256;2022-12-15T03:18:45;44.22;;;30.80;;
434;SDS011;204;48.942;9.256;2022-12-15T03:21:11;45.67;;;33.10;;
434;SDS011;204;48.942;9.256;2022-12-15T03:23:37;43.30;;;31.93;;
434;SDS011;204;48.942;9.256;2022-12-15T03:26:02;47.90;;;32.40;;
434;SDS011;204;48.942;9.256;2022-12-15T03:28:28;45.60;;;33.25;;
434;SDS011;204;48.942;9.256;2022-12-15T03:30:54;45.23;;;32.33;;
434;SDS011;204;48.942;9.256;2022-12-15T03:33:20;44.20;;;31.65;;
434;SDS011;204;48.942;9.256;2022-12-15T03:35:46;47.55;;;32.88;;
434;SDS011;204;48.942;9.256;2022-12-15T03:38:12;48.63;;;33.90;;
434;SDS011;204;48.942;9.256;2022-12-15T03:40:37;44.77;;;32.23;;
434;SDS011;204;48.942;9.256;2022-12-15T03:43:03;48.37;;;34.00;;
434;SDS011;204;48.942;9.256;2022-12-15T03:45:28;45.77;;;30.43;;
434;SDS011;204;48.942;9.256;2022-12-15T03:47:54;44.17;;;31.90;;
434;SDS011;204;48.942;9.256;2022-12-15T03:50:21;50.13;;;34.75;;
434;SDS011;204;48.942;9.256;2022-12-15T03:52:52;43.25;;;33.17;;
434;SDS011;204;48.942;9.256;2022-12-15T03:55:19;44.95;;;32.15;;
434;SDS011;204;48.942;9.256;2022-12-15T03:57:45;45.25;;;32.85;;
434;SDS011;204;48.942;9.256;2022-12-15T04:00:12;39.45;;;31.10;;
434;SDS011;204;48.942;9.256;2022-12-15T04:02:44;46.33;;;31.58;;
434;SDS011;204;48.942;9.256;2022-12-15T04:05:17;41.45;;;31.38;;
434;SDS011;204;48.942;9.256;2022-12-15T04:07:43;40.92;;;31.52;;
434;SDS011;204;48.942;9.256;2022-12-15T04:10:10;46.63;;;33.40;;
434;SDS011;204;48.942;9.256;2022-12-15T04:12:36;47.40;;;32.25;;
434;SDS011;204;48.942;9.256;2022-12-15T04:15:03;42.70;;;30.40;;
434;SDS011;204;48.942;9.256;2022-12-15T04:17:30;45.28;;;32.50;;
434;SDS011;204;48.942;9.256;2022-12-15T04:19:55;42.40;;;31.57;;
434;SDS011;204;48.942;9.256;2022-12-15T04:22:34;40.80;;;30.77;;
434;SDS011;204;48.942;9.256;2022-12-15T04:25:07;45.15;;;31.10;;
434;SDS011;204;48.942;9.256;2022-12-15T04:27:54;45.10;;;31.48;;
434;SDS011;204;48.942;9.256;2022-12-15T04:30:38;43.70;;;31.60;;
434;SDS011;204;48.942;9.256;2022-12-15T04:33:27;44.97;;;31.27;;
434;SDS011;204;48.942;9.256;2022-12-15T04:36:12;44.92;;;32.70;;
434;SDS011;204;48.942;9.256;2022-12-15T04:38:57;42.78;;;31.33;;
434;SDS011;204;48.942;9.256;2022-12-15T04:41:42;43.08;;;31.00;;
434;SDS011;204;48.942;9.256;2022-12-15T04:44:26;44.20;;;31.35;;
434;SDS011;204;48.942;9.256;2022-12-15T04:47:11;45.85;;;30.58;;
434;SDS011;204;48.942;9.256;2022-12-15T04:49:55;41.47;;;30.48;;
434;SDS011;204;48.942;9.256;2022-12-15T04:52:39;51.03;;;33.03;;
434;SDS011;204;48.942;9.256;2022-12-15T04:55:23;42.95;;;31.85;;
434;SDS011;204;48.942;9.256;2022-12-15T04:58:07;43.85;;;31.20;;
434;SDS011;204;48.942;9.256;2022-12-15T05:00:52;53.50;;;35.08;;
434;SDS011;204;48.942;9.256;2022-12-15T05:03:36;46.17;;;32.50;;
434;SDS011;204;48.942;9.256;2022-12-15T05:06:20;38.10;;;29.05;;
434;SDS011;204;48.942;9.256;2022-12-15T05:09:05;43.63;;;32.65;;
434;SDS011;204;48.942;9.256;2022-12-15T05:11:48;42.63;;;30.98;;
434;SDS011;204;48.942;9.256;2022-12-15T05:14:33;46.38;;;32.00;;
434;SDS011;204;48.942;9.256;2022-12-15T05:17:17;45.13;;;31.85;;
434;SDS011;204;48.942;9.256;2022-12-15T05:20:01;48.95;;;32.58;;
434;SDS011;204;48.942;9.256;2022-12-15T05:22:45;43.75;;;32.55;;
434;SDS011;204;48.942;9.256;2022-12-15T05:25:34;48.05;;;33.80;;
434;SDS011;204;48.942;9.256;2022-12-15T05:28:18;42.80;;;32.25;;
434;SDS011;204;48.942;9.256;2022-12-15T05:31:04;45.55;;;32.70;;
434;SDS011;204;48.942;9.256;2022-12-15T05:33:49;46.70;;;32.20;;
434;SDS011;204;48.942;9.256;2022-12-15T05:36:15;47.35;;;34.28;;
434;SDS011;204;48.942;9.256;2022-12-15T05:38:41;50.73;;;32.13;;
434;SDS011;204;48.942;9.256;2022-12-15T05:41:06;48.90;;;33.20;;
434;SDS011;204;48.942;9.256;2022-12-15T05:43:32;46.77;;;31.60;;
434;SDS011;204;48.942;9.256;2022-12-15T05:46:01;43.97;;;32.17;;
434;SDS011;204;48.942;9.256;2022-12-15T05:48:30;48.60;;;31.48;;
434;SDS011;204;48.942;9.256;2022-12-15T05:50:55;48.97;;;33.47;;
434;SDS011;204;48.942;9.256;2022-12-15T05:53:21;44.10;;;30.97;;
434;SDS011;204;48.942;9.256;2022-12-15T05:55:46;45.77;;;31.33;;
434;SDS011;204;48.942;9.256;2022-12-15T05:58:12;46.80;;;32.87;;
434;SDS011;204;48.942;9.256;2022-12-15T06:00:37;43.00;;;32.03;;
434;SDS011;204;48.942;9.256;2022-12-15T06:03:03;43.07;;;32.13;;
434;SDS011;204;48.942;9.256;2022-12-15T06:05:29;52.50;;;34.60;;
434;SDS011;204;48.942;9.256;2022-12-15T06:07:54;43.53;;;32.00;;
434;SDS011;204;48.942;9.256;2022-12-15T06:10:20;48.60;;;33.00;;
434;SDS011;204;48.942;9.256;2022-12-15T06:12:45;57.73;;;34.97;;
434;SDS011;204;48.942;9.256;2022-12-15T06:15:12;52.25;;;34.08;;
434;SDS011;204;48.942;9.256;2022-12-15T06:17:37;55.60;;;35.13;;
434;SDS011;204;48.942;9.256;2022-12-15T06:20:03;50.13;;;33.13;;
434;SDS011;204;48.942;9.256;2022-12-15T06:22:29;49.00;;;32.55;;
434;SDS011;204;48.942;9.256;2022-12-15T06:24:54;51.40;;;33.10;;
434;SDS011;204;48.942;9.256;2022-12-15T06:27:20;48.30;;;34.93;;
434;SDS011;204;48.942;9.256;2022-12-15T06:29:45;44.93;;;30.77;;
434;SDS011;204;48.942;9.256;2022-12-15T06:32:11;47.30;;;32.30;;
434;SDS011;204;48.942;9.256;2022-12-15T06:34:37;46.03;;;30.97;;
434;SDS011;204;48.942;9.256;2022-12-15T06:37:02;50.57;;;32.90;;
434;SDS011;204;48.942;9.256;2022-12-15T06:39:28;49.60;;;34.13;;
434;SDS011;204;48.942;9.256;2022-12-15T06:41:54;44.73;;;31.90;;
434;SDS011;204;48.942;9.256;2022-12-15T06:44:19;47.10;;;31.83;;
434;SDS011;204;48.942;9.256;2022-12-15T06:46:45;44.00;;;30.93;;
434;SDS011;204;48.942;9.256;2022-12-15T06:49:11;46.13;;;32.07;;
434;SDS011;204;48.942;9.256;2022-12-15T06:51:36;52.10;;;32.37;;
434;SDS011;204;48.942;9.256;2022-12-15T06:54:02;44.05;;;30.85;;
434;SDS011;204;48.942;9.256;2022-12-15T06:56:29;44.47;;;30.50;;
434;SDS011;204;48.942;9.256;2022-12-15T06:58:56;46.25;;;30.67;;
434;SDS011;204;48.942;9.256;2022-12-15T07:01:26;54.05;;;29.95;;
434;SDS011;204;48.942;9.256;2022-12-15T07:03:52;52.95;;;33.10;;
434;SDS011;204;48.942;9.256;2022-12-15T07:06:18;48.47;;;31.10;;
434;SDS011;204;48.942;9.256;2022-12-15T07:08:47;46.60;;;31.57;;
434;SDS011;204;48.942;9.256;2022-12-15T07:11:16;43.28;;;28.85;;
434;SDS011;204;48.942;9.256;2022-12-15T07:13:42;47.90;;;30.20;;
434;SDS011;204;48.942;9.256;2022-12-15T07:16:08;45.80;;;30.33;;
434;SDS011;204;48.942;9.256;2022-12-15T07:18:35;54.92;;;31.92;;
434;SDS011;204;48.942;9.256;2022-12-15T07:21:04;45.33;;;32.60;;
434;SDS011;204;48.942;9.256;2022-12-15T07:23:31;51.83;;;31.55;;
434;SDS011;204;48.942;9.256;2022-12-15T07:25:57;45.85;;;30.20;;
434;SDS011;204;48.942;9.256;2022-12-15T07:28:26;50.50;;;31.80;;
434;SDS011;204;48.942;9.256;2022-12-15T07:30:51;44.80;;;27.77;;
434;SDS011;204;48.942;9.256;2022-12-15T07:33:17;50.67;;;30.87;;
434;SDS011;204;48.942;9.256;2022-12-15T07:35:42;43.33;;;29.70;;
434;SDS011;204;48.942;9.256;2022-12-15T07:38:17;42.47;;;30.38;;
434;SDS011;204;48.942;9.256;2022-12-15T07:40:42;49.70;;;29.93;;
434;SDS011;204;48.942;9.256;2022-12-15T07:43:08;39.83;;;28.33;;
434;SDS011;204;48.942;9.256;2022-12-15T07:45:34;44.13;;;30.27;;
434;SDS011;204;48.942;9.256;2022-12-15T07:47:59;49.63;;;32.13;;
434;SDS011;204;48.942;9.256;2022-12-15T07:50:25;44.10;;;29.95;;
434;SDS011;204;48.942;9.256;2022-12-15T07:52:53;41.00;;;28.38;;
434;SDS011;204;48.942;9.256;2022-12-15T07:55:18;49.80;;;31.00;;
434;SDS011;204;48.942;9.256;2022-12-15T07:57:45;43.13;;;27.13;;
434;SDS011;204;48.942;9.256;2022-12-15T08:00:12;46.80;;;28.52;;
434;SDS011;204;48.942;9.256;2022-12-15T08:02:39;42.35;;;27.67;;
434;SDS011;204;48.942;9.256;2022-12-15T08:05:06;45.35;;;30.52;;
434;SDS011;204;48.942;9.256;2022-12-15T08:07:32;43.92;;;28.33;;
434;SDS011;204;48.942;9.256;2022-12-15T08:09:58;42.97;;;29.83;;
434;SDS011;204;48.942;9.256;2022-12-15T08:12:23;42.60;;;29.90;;
434;SDS011;204;48.942;9.256;2022-12-15T08:14:50;38.15;;;27.85;;
434;SDS011;204;48.942;9.256;2022-12-15T08:17:16;42.03;;;27.63;;
434;SDS011;204;48.942;9.256;2022-12-15T08:19:41;43.60;;;28.00;;
434;SDS011;204;48.942;9.256;2022-12-15T08:22:07;38.53;;;27.57;;
434;SDS011;204;48.942;9.256;2022-12-15T08:24:33;37.63;;;27.60;;
434;SDS011;204;48.942;9.256;2022-12-15T08:26:59;44.27;;;28.60;;
434;SDS011;204;48.942;9.256;2022-12-15T08:29:24;40.47;;;27.63;;
434;SDS011;204;48.942;9.256;2022-12-15T08:31:50;41.33;;;28.57;;
434;SDS011;204;48.942;9.256;2022-12-15T08:34:16;40.95;;;28.50;;
434;SDS011;204;48.942;9.256;2022-12-15T08:36:42;34.27;;;26.70;;
434;SDS011;204;48.942;9.256;2022-12-15T08:39:08;37.30;;;27.10;;
434;SDS011;204;48.942;9.256;2022-12-15T08:41:33;39.20;;;26.70;;
434;SDS011;204;48.942;9.256;2022-12-15T08:43:59;36.80;;;26.40;;
434;SDS011;204;48.942;9.256;2022-12-15T08:46:30;37.42;;;27.30;;
434;SDS011;204;48.942;9.256;2022-12-15T08:49:00;43.50;;;28.88;;
434;SDS011;204;48.942;9.256;2022-12-15T08:51:28;41.30;;;28.48;;
434;SDS011;204;48.942;9.256;2022-12-15T08:53:55;42.60;;;28.85;;
434;SDS011;204;48.942;9.256;2022-12-15T08:56:21;39.95;;;28.88;;
434;SDS011;204;48.942;9.256;2022-12-15T08:58:49;35.58;;;25.20;;
434;SDS011;204;48.942;9.256;2022-12-15T09:01:20;37.35;;;27.05;;
434;SDS011;204;48.942;9.256;2022-12-15T09:03:46;37.92;;;25.92;;
434;SDS011;204;48.942;9.256;2022-12-15T09:06:14;38.75;;;25.70;;
434;SDS011;204;48.942;9.256;2022-12-15T09:08:42;43.70;;;27.27;;
434;SDS011;204;48.942;9.256;2022-12-15T09:11:08;42.90;;;27.30;;
434;SDS011;204;48.942;9.256;2022-12-15T09:13:33;39.80;;;27.40;;
434;SDS011;204;48.942;9.256;2022-12-15T09:18:26;40.97;;;26.88;;
434;SDS011;204;48.942;9.256;2022-12-15T09:20:53;37.25;;;28.38;;
434;SDS011;204;48.942;9.256;2022-12-15T09:23:19;34.25;;;26.23;;
434;SDS011;204;48.942;9.256;2022-12-15T09:25:46;36.30;;;26.08;;
434;SDS011;204;48.942;9.256;2022-12-15T09:28:12;33.90;;;25.43;;
434;SDS011;204;48.942;9.256;2022-12-15T09:30:38;37.15;;;25.70;;
434;SDS011;204;48.942;9.256;2022-12-15T09:33:04;36.38;;;25.90;;
434;SDS011;204;48.942;9.256;2022-12-15T09:35:30;33.80;;;25.30;;
434;SDS011;204;48.942;9.256;2022-12-15T09:37:56;38.20;;;25.67;;
434;SDS011;204;48.942;9.256;2022-12-15T09:40:22;42.00;;;27.95;;
434;SDS011;204;48.942;9.256;2022-12-15T09:42:52;36.60;;;26.42;;
434;SDS011;204;48.942;9.256;2022-12-15T09:45:31;36.65;;;26.40;;
434;SDS011;204;48.942;9.256;2022-12-15T09:48:08;35.63;;;27.33;;
434;SDS011;204;48.942;9.256;2022-12-15T09:50:38;36.03;;;26.83;;
434;SDS011;204;48.942;9.256;2022-12-15T09:53:08;36.80;;;26.90;;
434;SDS011;204;48.942;9.256;2022-12-15T09:55:36;36.85;;;27.58;;
434;SDS011;204;48.942;9.256;2022-12-15T09:58:10;39.13;;;28.55;;
434;SDS011;204;48.942;9.256;2022-12-15T10:01:00;33.47;;;26.95;;
434;SDS011;204;48.942;9.256;2022-12-15T10:03:39;36.65;;;26.65;;
434;SDS011;204;48.942;9.256;2022-12-15T10:06:19;40.72;;;27.70;;
434;SDS011;204;48.942;9.256;2022-12-15T10:08:59;34.17;;;26.33;;
434;SDS011;204;48.942;9.256;2022-12-15T10:11:50;35.58;;;27.20;;
434;SDS011;204;48.942;9.256;2022-12-15T10:16:54;33.88;;;24.08;;
434;SDS011;204;48.942;9.256;2022-12-15T10:22:02;31.77;;;25.67;;
434;SDS011;204;48.942;9.256;2022-12-15T10:24:29;40.40;;;26.40;;
434;SDS011;204;48.942;9.256;2022-12-15T10:27:01;31.40;;;24.40;;
434;SDS011;204;48.942;9.256;2022-12-15T10:29:42;34.63;;;26.15;;
434;SDS011;204;48.942;9.256;2022-12-15T10:32:50;35.65;;;25.55;;
434;SDS011;204;48.942;9.256;2022-12-15T10:35:34;33.90;;;25.52;;
434;SDS011;204;48.942;9.256;2022-12-15T10:38:02;33.17;;;24.45;;
434;SDS011;204;48.942;9.256;2022-12-15T10:40:49;33.40;;;23.75;;
434;SDS011;204;48.942;9.256;2022-12-15T10:48:38;31.50;;;24.85;;
434;SDS011;204;48.942;9.256;2022-12-15T10:51:15;34.67;;;25.30;;
434;SDS011;204;48.942;9.256;2022-12-15T10:53:44;30.33;;;23.92;;
434;SDS011;204;48.942;9.256;2022-12-15T10:56:25;37.33;;;25.42;;
434;SDS011;204;48.942;9.256;2022-12-15T10:58:53;35.45;;;25.55;;
434;SDS011;204;48.942;9.256;2022-12-15T11:01:25;31.67;;;23.67;;
434;SDS011;204;48.942;9.256;2022-12-15T11:03:52;34.08;;;24.25;;
434;SDS011;204;48.942;9.256;2022-12-15T11:06:26;30.98;;;23.10;;
434;SDS011;204;48.942;9.256;2022-12-15T11:08:56;33.88;;;23.35;;
434;SDS011;204;48.942;9.256;2022-12-15T11:11:50;36.00;;;25.17;;
434;SDS011;204;48.942;9.256;2022-12-15T11:14:47;36.13;;;24.10;;
434;SDS011;204;48.942;9.256;2022-12-15T11:17:18;33.65;;;23.70;;
434;SDS011;204;48.942;9.256;2022-12-15T11:25:48;32.97;;;24.77;;
434;SDS011;204;48.942;9.256;2022-12-15T11:27:53;32.30;;;24.25;;
434;SDS011;204;48.942;9.256;2022-12-15T11:30:43;32.92;;;23.23;;
434;SDS011;204;48.942;9.256;2022-12-15T11:33:14;35.30;;;24.23;;
434;SDS011;204;48.942;9.256;2022-12-15T11:36:03;34.87;;;24.57;;
434;SDS011;204;48.942;9.256;2022-12-15T11:38:41;33.47;;;25.30;;
434;SDS011;204;48.942;9.256;2022-12-15T11:41:14;33.25;;;23.50;;
434;SDS011;204;48.942;9.256;2022-12-15T11:44:23;31.08;;;24.05;;
434;SDS011;204;48.942;9.256;2022-12-15T11:46:58;34.60;;;25.17;;
434;SDS011;204;48.942;9.256;2022-12-15T11:49:49;32.20;;;23.50;;
434;SDS011;204;48.942;9.256;2022-12-15T11:55:17;35.10;;;23.67;;
434;SDS011;204;48.942;9.256;2022-12-15T11:57:57;32.25;;;22.48;;
434;SDS011;204;48.942;9.256;2022-12-15T12:00:29;31.42;;;24.33;;
434;SDS011;204;48.942;9.256;2022-12-15T12:11:14;29.73;;;23.13;;
434;SDS011;204;48.942;9.256;2022-12-15T12:19:33;33.20;;;24.60;;
434;SDS011;204;48.942;9.256;2022-12-15T12:22:31;31.85;;;23.13;;
434;SDS011;204;48.942;9.256;2022-12-15T12:25:04;31.50;;;23.17;;
434;SDS011;204;48.942;9.256;2022-12-15T12:30:14;30.77;;;22.30;;
434;SDS011;204;48.942;9.256;2022-12-15T12:35:16;33.40;;;22.30;;
434;SDS011;204;48.942;9.256;2022-12-15T12:37:50;30.95;;;22.70;;
434;SDS011;204;48.942;9.256;2022-12-15T12:41:03;35.40;;;23.02;;
434;SDS011;204;48.942;9.256;2022-12-15T12:46:47;30.23;;;21.55;;
434;SDS011;204;48.942;9.256;2022-12-15T12:49:32;31.73;;;24.20;;
434;SDS011;204;48.942;9.256;2022-12-15T12:52:04;34.90;;;23.80;;
434;SDS011;204;48.942;9.256;2022-12-15T12:54:39;38.08;;;22.20;;
434;SDS011;204;48.942;9.256;2022-12-15T13:04:47;35.17;;;24.73;;
434;SDS011;204;48.942;9.256;2022-12-15T13:07:36;35.90;;;25.48;;
434;SDS011;204;48.942;9.256;2022-12-15T13:18:14;29.05;;;21.85;;
434;SDS011;204;48.942;9.256;2022-12-15T13:20:44;31.33;;;23.05;;
434;SDS011;204;48.942;9.256;2022-12-15T13:41:42;36.65;;;25.08;;
434;SDS011;204;48.942;9.256;2022-12-15T13:44:42;26.98;;;21.17;;
434;SDS011;204;48.942;9.256;2022-12-15T13:47:22;30.55;;;20.90;;
434;SDS011;204;48.942;9.256;2022-12-15T13:49:58;34.22;;;25.23;;
434;SDS011;204;48.942;9.256;2022-12-15T13:54:59;28.30;;;21.05;;
434;SDS011;204;48.942;9.256;2022-12-15T13:57:32;27.35;;;19.73;;
434;SDS011;204;48.942;9.256;2022-12-15T14:00:12;29.58;;;22.40;;
434;SDS011;204;48.942;9.256;2022-12-15T14:02:43;30.05;;;21.25;;
434;SDS011;204;48.942;9.256;2022-12-15T14:05:19;26.08;;;19.25;;
434;SDS011;204;48.942;9.256;2022-12-15T14:07:47;32.35;;;22.08;;
434;SDS011;204;48.942;9.256;2022-12-15T14:13:02;31.15;;;22.38;;
434;SDS011;204;48.942;9.256;2022-12-15T14:15:39;30.17;;;20.98;;
434;SDS011;204;48.942;9.256;2022-12-15T14:18:17;33.20;;;21.77;;
434;SDS011;204;48.942;9.256;2022-12-15T14:20:48;30.48;;;21.95;;
434;SDS011;204;48.942;9.256;2022-12-15T14:23:21;28.57;;;19.27;;
434;SDS011;204;48.942;9.256;2022-12-15T14:25:55;33.03;;;21.63;;
434;SDS011;204;48.942;9.256;2022-12-15T14:28:28;30.30;;;21.65;;
434;SDS011;204;48.942;9.256;2022-12-15T14:30:57;26.90;;;19.42;;
434;SDS011;204;48.942;9.256;2022-12-15T14:33:28;27.25;;;19.80;;
434;SDS011;204;48.942;9.256;2022-12-15T14:35:58;25.13;;;18.05;;
434;SDS011;204;48.942;9.256;2022-12-15T14:41:05;28.85;;;20.20;;
434;SDS011;204;48.942;9.256;2022-12-15T14:43:37;23.73;;;18.70;;
434;SDS011;204;48.942;9.256;2022-12-15T14:46:25;29.30;;;19.58;;
434;SDS011;204;48.942;9.256;2022-12-15T14:48:52;25.17;;;17.90;;
434;SDS011;204;48.942;9.256;2022-12-15T14:51:20;23.27;;;17.95;;
434;SDS011;204;48.942;9.256;2022-12-15T14:53:48;22.73;;;16.17;;
434;SDS011;204;48.942;9.256;2022-12-15T14:58:45;25.30;;;18.15;;
434;SDS011;204;48.942;9.256;2022-12-15T15:04:52;24.88;;;18.45;;
434;SDS011;204;48.942;9.256;2022-12-15T15:06:57;23.83;;;17.25;;
434;SDS011;204;48.942;9.256;2022-12-15T15:09:32;26.05;;;17.15;;
434;SDS011;204;48.942;9.256;2022-12-15T15:12:08;22.25;;;16.98;;
434;SDS011;204;48.942;9.256;2022-12-15T15:17:20;24.27;;;17.73;;
434;SDS011;204;48.942;9.256;2022-12-15T15:19:50;23.60;;;17.90;;
434;SDS011;204;48.942;9.256;2022-12-15T15:22:29;22.25;;;17.65;;
434;SDS011;204;48.942;9.256;2022-12-15T15:24:59;23.58;;;18.00;;
434;SDS011;204;48.942;9.256;2022-12-15T15:30:05;23.80;;;17.67;;
434;SDS011;204;48.942;9.256;2022-12-15T15:32:56;23.77;;;17.48;;
434;SDS011;204;48.942;9.256;2022-12-15T15:35:24;22.15;;;16.95;;
434;SDS011;204;48.942;9.256;2022-12-15T15:37:54;21.70;;;16.80;;
434;SDS011;204;48.942;9.256;2022-12-15T15:40:26;22.02;;;17.38;;
434;SDS011;204;48.942;9.256;2022-12-15T15:42:52;22.83;;;17.77;;
434;SDS011;204;48.942;9.256;2022-12-15T15:45:17;23.23;;;18.20;;
434;SDS011;204;48.942;9.256;2022-12-15T15:47:47;26.10;;;18.80;;
434;SDS011;204;48.942;9.256;2022-12-15T15:50:15;25.13;;;17.48;;
434;SDS011;204;48.942;9.256;2022-12-15T15:52:43;23.70;;;16.80;;
434;SDS011;204;48.942;9.256;2022-12-15T15:55:13;24.30;;;18.47;;
434;SDS011;204;48.942;9.256;2022-12-15T15:57:40;22.70;;;17.35;;
434;SDS011;204;48.942;9.256;2022-12-15T16:00:12;23.17;;;18.23;;
434;SDS011;204;48.942;9.256;2022-12-15T16:02:43;23.55;;;18.23;;
434;SDS011;204;48.942;9.256;2022-12-15T16:05:08;23.73;;;18.30;;
434;SDS011;204;48.942;9.256;2022-12-15T16:07:34;24.77;;;18.90;;
434;SDS011;204;48.942;9.256;2022-12-15T16:10:00;23.50;;;18.50;;
434;SDS011;204;48.942;9.256;2022-12-15T16:12:29;25.83;;;20.07;;
434;SDS011;204;48.942;9.256;2022-12-15T16:15:22;27.13;;;19.33;;
434;SDS011;204;48.942;9.256;2022-12-15T16:17:50;27.20;;;20.42;;
434;SDS011;204;48.942;9.256;2022-12-15T16:20:17;28.38;;;19.20;;
434;SDS011;204;48.942;9.256;2022-12-15T16:22:46;31.25;;;21.83;;
434;SDS011;204;48.942;9.256;2022-12-15T16:25:16;29.45;;;20.73;;
434;SDS011;204;48.942;9.256;2022-12-15T16:27:44;28.80;;;20.00;;
434;SDS011;204;48.942;9.256;2022-12-15T16:30:13;27.73;;;21.47;;
434;SDS011;204;48.942;9.256;2022-12-15T16:32:47;29.48;;;20.23;;
434;SDS011;204;48.942;9.256;2022-12-15T16:35:14;28.05;;;20.90;;
434;SDS011;204;48.942;9.256;2022-12-15T16:37:40;27.45;;;20.05;;
434;SDS011;204;48.942;9.256;2022-12-15T16:42:46;32.28;;;24.90;;
434;SDS011;204;48.942;9.256;2022-12-15T16:45:17;27.20;;;21.30;;
434;SDS011;204;48.942;9.256;2022-12-15T16:47:44;27.85;;;20.75;;
434;SDS011;204;48.942;9.256;2022-12-15T16:50:14;27.85;;;19.70;;
434;SDS011;204;48.942;9.256;2022-12-15T16:52:42;27.95;;;21.88;;
434;SDS011;204;48.942;9.256;2022-12-15T16:55:17;26.73;;;20.45;;
434;SDS011;204;48.942;9.256;2022-12-15T16:57:48;29.42;;;20.35;;
434;SDS011;204;48.942;9.256;2022-12-15T17:00:14;25.13;;;20.20;;
434;SDS011;204;48.942;9.256;2022-12-15T17:02:41;30.63;;;21.10;;
434;SDS011;204;48.942;9.256;2022-12-15T17:05:07;26.43;;;19.40;;
434;SDS011;204;48.942;9.256;2022-12-15T17:07:33;26.60;;;17.75;;
434;SDS011;204;48.942;9.256;2022-12-15T17:09:59;33.30;;;21.27;;
434;SDS011;204;48.942;9.256;2022-12-15T17:12:25;28.93;;;21.90;;
434;SDS011;204;48.942;9.256;2022-12-15T17:14:50;26.10;;;19.80;;
434;SDS011;204;48.942;9.256;2022-12-15T17:17:17;30.57;;;21.20;;
434;SDS011;204;48.942;9.256;2022-12-15T17:19:43;28.80;;;20.92;;
434;SDS011;204;48.942;9.256;2022-12-15T17:22:11;22.85;;;17.17;;
434;SDS011;204;48.942;9.256;2022-12-15T17:24:39;25.02;;;19.20;;
434;SDS011;204;48.942;9.256;2022-12-15T17:27:06;27.85;;;21.10;;
434;SDS011;204;48.942;9.256;2022-12-15T17:29:32;22.58;;;16.98;;
434;SDS011;204;48.942;9.256;2022-12-15T17:31:57;25.80;;;18.83;;
434;SDS011;204;48.942;9.256;2022-12-15T17:34:28;28.17;;;22.13;;
434;SDS011;204;48.942;9.256;2022-12-15T17:36:55;26.80;;;20.75;;
434;SDS011;204;48.942;9.256;2022-12-15T17:39:23;32.38;;;22.27;;
434;SDS011;204;48.942;9.256;2022-12-15T17:41:50;32.85;;;24.83;;
434;SDS011;204;48.942;9.256;2022-12-15T17:44:23;36.43;;;24.60;;
434;SDS011;204;48.942;9.256;2022-12-15T17:46:50;35.60;;;25.88;;
434;SDS011;204;48.942;9.256;2022-12-15T17:49:19;34.13;;;25.60;;
434;SDS011;204;48.942;9.256;2022-12-15T17:51:46;38.47;;;27.33;;